Time;durP1;ratioP1;P1;durP2;ratioP2;P2;SDS_P1;SDS_P2;PMS_P1;PMS_P2;Temp;Humidity;BMP_temperature;BMP_pressure;BME280_temperature;BME280_humidity;BME280_pressure;Samples;Min_cycle;Max_cycle;Signal;HPM_P1;HPM_P2
2022/07/25 00:01:53;;;;;;;10.05;8.63;;;;;;;;;;5045977;28;20106;-69
2022/07/25 00:04:19;;;;;;;12.98;9.23;;;;;;;;;;5051392;28;20071;-69
2022/07/25 00:06:45;;;;;;;10.25;8.77;;;;;;;;;;5045428;28;20064;-69
2022/07/25 00:09:11;;;;;;;9.90;8.45;;;;;;;;;;5030703;28;20487;-71
2022/07/25 00:11:36;;;;;;;9.93;8.38;;;;;;;;;;5031013;28;20049;-69
2022/07/25 00:14:03;;;;;;;11.80;8.60;;;;;;;;;;5029932;28;20141;-69
2022/07/25 00:16:28;;;;;;;11.02;8.32;;;;;;;;;;5042774;28;20495;-69
2022/07/25 00:18:53;;;;;;;12.55;9.10;;;;;;;;;;5021362;28;20116;-70
2022/07/25 00:21:19;;;;;;;11.50;8.25;;;;;;;;;;5010337;28;20136;-69
2022/07/25 00:23:44;;;;;;;10.27;8.98;;;;;;;;;;5011013;28;20053;-69
2022/07/25 00:26:10;;;;;;;12.15;8.70;;;;;;;;;;5011032;28;20049;-69
2022/07/25 00:28:35;;;;;;;12.70;9.20;;;;;;;;;;5011243;28;20427;-69
2022/07/25 00:31:01;;;;;;;10.05;7.95;;;;;;;;;;5013357;28;20034;-69
2022/07/25 00:33:26;;;;;;;12.77;9.27;;;;;;;;;;5010265;28;20406;-69
2022/07/25 00:35:51;;;;;;;10.82;8.25;;;;;;;;;;5010953;28;20501;-69
2022/07/25 00:38:17;;;;;;;10.55;8.32;;;;;;;;;;5011205;28;20088;-69
2022/07/25 00:40:42;;;;;;;10.60;8.68;;;;;;;;;;5011129;28;20124;-69
2022/07/25 00:43:08;;;;;;;9.02;7.82;;;;;;;;;;5010614;28;20096;-69
2022/07/25 00:45:33;;;;;;;10.73;8.40;;;;;;;;;;5000460;28;20037;-69
2022/07/25 00:47:59;;;;;;;15.30;8.93;;;;;;;;;;5050496;28;20402;-69
2022/07/25 00:50:24;;;;;;;12.80;9.00;;;;;;;;;;5044787;28;20075;-69
2022/07/25 00:52:50;;;;;;;10.40;9.23;;;;;;;;;;5010073;28;20045;-69
2022/07/25 00:55:16;;;;;;;14.65;8.90;;;;;;;;;;5009839;28;20150;-69
2022/07/25 00:57:41;;;;;;;11.70;9.23;;;;;;;;;;5010589;28;20124;-69
2022/07/25 01:00:10;;;;;;;9.13;8.23;;;;;;;;;;5011265;28;20050;-69
2022/07/25 01:02:36;;;;;;;12.13;8.45;;;;;;;;;;5024449;28;20168;-69
2022/07/25 01:05:04;;;;;;;9.80;8.57;;;;;;;;;;5010242;28;20518;-69
2022/07/25 01:07:30;;;;;;;11.48;8.63;;;;;;;;;;5009893;28;20124;-69
2022/07/25 01:09:56;;;;;;;13.70;9.48;;;;;;;;;;5010446;28;20468;-69
2022/07/25 01:12:21;;;;;;;9.95;8.68;;;;;;;;;;5009927;28;20048;-69
2022/07/25 01:14:47;;;;;;;12.93;9.02;;;;;;;;;;5009981;28;20054;-69
2022/07/25 01:17:12;;;;;;;10.65;8.93;;;;;;;;;;5038760;28;20044;-71
2022/07/25 01:19:38;;;;;;;12.80;9.32;;;;;;;;;;5049738;28;20396;-69
2022/07/25 01:22:03;;;;;;;11.38;8.55;;;;;;;;;;5049662;28;20057;-69
2022/07/25 01:24:29;;;;;;;10.75;9.40;;;;;;;;;;5037792;28;20045;-69
2022/07/25 01:26:54;;;;;;;11.65;9.15;;;;;;;;;;5029819;28;20041;-69
2022/07/25 01:29:20;;;;;;;12.52;8.68;;;;;;;;;;5029354;28;20487;-69
2022/07/25 01:31:45;;;;;;;10.52;9.20;;;;;;;;;;5043540;28;20055;-69
2022/07/25 01:34:11;;;;;;;10.57;8.75;;;;;;;;;;5048977;28;20091;-69
2022/07/25 01:36:36;;;;;;;10.48;8.40;;;;;;;;;;5029396;28;20072;-69
2022/07/25 01:39:02;;;;;;;9.18;8.27;;;;;;;;;;5029374;28;20490;-69
2022/07/25 01:41:27;;;;;;;10.32;8.57;;;;;;;;;;5029196;28;20407;-69
2022/07/25 01:43:53;;;;;;;12.38;8.90;;;;;;;;;;5044616;28;20598;-70
2022/07/25 01:46:18;;;;;;;10.25;9.15;;;;;;;;;;5029836;28;20049;-70
2022/07/25 01:48:44;;;;;;;10.18;8.35;;;;;;;;;;5031780;28;20041;-70
2022/07/25 01:51:09;;;;;;;12.63;9.23;;;;;;;;;;5035289;28;20395;-69
2022/07/25 01:53:35;;;;;;;10.15;8.98;;;;;;;;;;5028570;28;20076;-69
2022/07/25 01:56:01;;;;;;;10.18;9.13;;;;;;;;;;5029421;28;20115;-69
2022/07/25 01:58:26;;;;;;;10.88;9.00;;;;;;;;;;5028854;28;20037;-69
2022/07/25 02:00:52;;;;;;;11.73;9.45;;;;;;;;;;5035922;28;20055;-69
2022/07/25 02:03:30;;;;;;;10.40;8.88;;;;;;;;;;5048370;28;20453;-69
2022/07/25 02:06:04;;;;;;;9.57;8.57;;;;;;;;;;5049209;28;20064;-69
2022/07/25 02:08:30;;;;;;;10.80;8.93;;;;;;;;;;5039636;28;20099;-69
2022/07/25 02:10:56;;;;;;;12.13;9.85;;;;;;;;;;5033706;28;20045;-69
2022/07/25 02:13:22;;;;;;;13.73;9.32;;;;;;;;;;5028512;28;20070;-69
2022/07/25 02:15:47;;;;;;;14.65;9.35;;;;;;;;;;5035078;28;20757;-69
2022/07/25 02:18:13;;;;;;;10.55;9.38;;;;;;;;;;5046644;28;20048;-69
2022/07/25 02:20:38;;;;;;;11.48;9.65;;;;;;;;;;5009097;28;20074;-69
2022/07/25 02:23:04;;;;;;;13.48;9.73;;;;;;;;;;5009808;28;20077;-69
2022/07/25 02:25:30;;;;;;;11.23;9.35;;;;;;;;;;5008394;28;20405;-69
2022/07/25 02:27:56;;;;;;;12.65;9.68;;;;;;;;;;4991866;28;20052;-69
2022/07/25 02:30:21;;;;;;;10.90;9.40;;;;;;;;;;5011321;28;20066;-69
2022/07/25 02:32:47;;;;;;;12.40;8.55;;;;;;;;;;5009059;28;20050;-69
2022/07/25 02:35:12;;;;;;;10.73;9.07;;;;;;;;;;5008680;28;20045;-71
2022/07/25 02:37:38;;;;;;;12.90;9.68;;;;;;;;;;5009450;28;20569;-69
2022/07/25 02:40:04;;;;;;;10.73;9.32;;;;;;;;;;5009281;28;20046;-69
2022/07/25 02:42:30;;;;;;;13.85;9.45;;;;;;;;;;5008597;28;20054;-69
2022/07/25 02:44:55;;;;;;;12.20;8.90;;;;;;;;;;5009478;28;20196;-69
2022/07/25 02:47:21;;;;;;;12.70;10.18;;;;;;;;;;5046037;28;20052;-69
2022/07/25 02:49:46;;;;;;;12.85;9.68;;;;;;;;;;5049023;28;20056;-70
2022/07/25 02:52:12;;;;;;;10.90;9.52;;;;;;;;;;5041434;28;20041;-69
2022/07/25 02:54:37;;;;;;;12.52;9.20;;;;;;;;;;5012779;28;20049;-69
2022/07/25 02:57:03;;;;;;;12.00;9.63;;;;;;;;;;5012766;28;20042;-69
2022/07/25 02:59:28;;;;;;;12.18;8.90;;;;;;;;;;5012147;28;20053;-70
2022/07/25 03:01:53;;;;;;;10.10;9.10;;;;;;;;;;5041211;28;20502;-69
2022/07/25 03:04:19;;;;;;;12.88;10.15;;;;;;;;;;5015775;28;20042;-70
2022/07/25 03:06:44;;;;;;;13.90;10.18;;;;;;;;;;5012713;28;20061;-69
2022/07/25 03:09:10;;;;;;;11.95;9.32;;;;;;;;;;5012181;28;20045;-69
2022/07/25 03:11:35;;;;;;;14.10;8.63;;;;;;;;;;5011002;28;20045;-69
2022/07/25 03:14:00;;;;;;;11.48;9.32;;;;;;;;;;5019088;28;20045;-69
2022/07/25 03:16:26;;;;;;;10.90;8.90;;;;;;;;;;5025038;28;20116;-69
2022/07/25 03:18:52;;;;;;;10.73;9.60;;;;;;;;;;5031026;28;20048;-69
2022/07/25 03:21:17;;;;;;;14.30;9.32;;;;;;;;;;5031702;28;20049;-69
2022/07/25 03:23:43;;;;;;;12.32;9.48;;;;;;;;;;5031705;28;20057;-70
2022/07/25 03:26:08;;;;;;;14.82;9.60;;;;;;;;;;5031853;28;20037;-69
2022/07/25 03:28:34;;;;;;;13.02;9.40;;;;;;;;;;5032139;28;20087;-69
2022/07/25 03:30:59;;;;;;;12.60;9.85;;;;;;;;;;5039286;28;20040;-69
2022/07/25 03:33:25;;;;;;;13.90;10.18;;;;;;;;;;5051087;28;20049;-69
2022/07/25 03:35:50;;;;;;;12.82;10.52;;;;;;;;;;5050204;28;20136;-69
2022/07/25 03:38:15;;;;;;;15.50;10.65;;;;;;;;;;5035183;28;20049;-70
2022/07/25 03:40:41;;;;;;;14.35;10.07;;;;;;;;;;5032193;28;20053;-70
2022/07/25 03:43:06;;;;;;;11.50;10.25;;;;;;;;;;5031620;28;20107;-69
2022/07/25 03:45:32;;;;;;;12.48;9.93;;;;;;;;;;5035154;28;20106;-70
2022/07/25 03:47:57;;;;;;;13.25;10.60;;;;;;;;;;5035581;28;20041;-69
2022/07/25 03:50:22;;;;;;;12.07;10.63;;;;;;;;;;5031798;28;20487;-69
2022/07/25 03:52:48;;;;;;;13.68;10.60;;;;;;;;;;5031249;28;20053;-70
2022/07/25 03:55:13;;;;;;;15.15;10.77;;;;;;;;;;5031063;28;20052;-71
2022/07/25 03:57:39;;;;;;;14.00;10.45;;;;;;;;;;5031798;28;20190;-69
2022/07/25 04:00:08;;;;;;;12.45;11.02;;;;;;;;;;5031386;28;20057;-69
2022/07/25 04:02:33;;;;;;;16.23;9.40;;;;;;;;;;5046016;28;20056;-69
2022/07/25 04:04:59;;;;;;;13.93;10.52;;;;;;;;;;5042122;28;20033;-69
2022/07/25 04:07:24;;;;;;;13.52;10.18;;;;;;;;;;5040696;28;20507;-69
2022/07/25 04:09:50;;;;;;;13.88;9.75;;;;;;;;;;5041135;28;20048;-69
2022/07/25 04:12:15;;;;;;;11.60;10.25;;;;;;;;;;5041321;28;20978;-69
2022/07/25 04:14:41;;;;;;;11.77;9.65;;;;;;;;;;5041903;28;20040;-70
2022/07/25 04:17:06;;;;;;;11.18;9.20;;;;;;;;;;5040379;28;21037;-69
2022/07/25 04:19:31;;;;;;;12.45;9.52;;;;;;;;;;5037484;28;20045;-69
2022/07/25 04:21:57;;;;;;;11.43;10.00;;;;;;;;;;5033410;28;20511;-70
2022/07/25 04:24:22;;;;;;;11.98;9.23;;;;;;;;;;5032241;28;20153;-70
2022/07/25 04:26:48;;;;;;;11.35;9.23;;;;;;;;;;5041327;28;20045;-69
2022/07/25 04:29:13;;;;;;;12.90;9.63;;;;;;;;;;5040482;28;20052;-70
2022/07/25 04:31:39;;;;;;;12.75;9.57;;;;;;;;;;5039516;28;20040;-70
2022/07/25 04:34:04;;;;;;;9.70;8.70;;;;;;;;;;5028384;28;20045;-70
2022/07/25 04:36:30;;;;;;;10.70;9.07;;;;;;;;;;5033246;28;20048;-70
2022/07/25 04:38:55;;;;;;;10.05;8.98;;;;;;;;;;5041606;28;20055;-70
2022/07/25 04:41:21;;;;;;;11.15;9.23;;;;;;;;;;5039058;28;20036;-70
2022/07/25 04:43:46;;;;;;;12.20;9.50;;;;;;;;;;5040981;28;20471;-71
2022/07/25 04:46:12;;;;;;;15.07;9.60;;;;;;;;;;5038905;28;20842;-70
2022/07/25 04:48:37;;;;;;;11.95;8.90;;;;;;;;;;5036852;28;20045;-71
2022/07/25 04:51:02;;;;;;;10.48;9.38;;;;;;;;;;5038774;28;20098;-72
2022/07/25 04:53:28;;;;;;;12.18;9.77;;;;;;;;;;5022062;28;20095;-70
2022/07/25 04:55:53;;;;;;;13.75;10.20;;;;;;;;;;5031394;28;20037;-70
2022/07/25 04:58:19;;;;;;;10.68;9.55;;;;;;;;;;5036337;28;20083;-72
2022/07/25 05:00:44;;;;;;;12.32;9.88;;;;;;;;;;5037410;28;20045;-67
2022/07/25 05:03:10;;;;;;;13.65;9.82;;;;;;;;;;5029070;28;20133;-70
2022/07/25 05:05:36;;;;;;;11.13;9.93;;;;;;;;;;5026405;28;20049;-69
2022/07/25 05:08:02;;;;;;;13.13;9.90;;;;;;;;;;5034821;28;20049;-69
2022/07/25 05:10:28;;;;;;;11.40;9.57;;;;;;;;;;5038375;28;20056;-70
2022/07/25 05:12:55;;;;;;;10.82;9.30;;;;;;;;;;5038140;28;20044;-69
2022/07/25 05:15:21;;;;;;;14.65;9.07;;;;;;;;;;5034169;28;20099;-70
2022/07/25 05:17:47;;;;;;;12.07;9.15;;;;;;;;;;5034163;28;20058;-70
2022/07/25 05:20:12;;;;;;;9.80;8.88;;;;;;;;;;5034143;28;20053;-70
2022/07/25 05:22:38;;;;;;;14.05;9.05;;;;;;;;;;5037261;28;20041;-70
2022/07/25 05:25:09;;;;;;;13.10;8.55;;;;;;;;;;5040521;28;20112;-70
2022/07/25 05:27:35;;;;;;;8.85;7.95;;;;;;;;;;5037462;28;20044;-71
2022/07/25 05:30:00;;;;;;;10.43;8.57;;;;;;;;;;5040068;28;21057;-71
2022/07/25 05:32:26;;;;;;;13.13;9.20;;;;;;;;;;5029658;28;20038;-70
2022/07/25 05:34:51;;;;;;;12.35;9.05;;;;;;;;;;5032411;28;20634;-71
2022/07/25 05:37:18;;;;;;;10.98;8.77;;;;;;;;;;5032680;28;20393;-71
2022/07/25 05:39:44;;;;;;;11.38;9.10;;;;;;;;;;5029904;28;20076;-70
2022/07/25 05:42:09;;;;;;;10.13;8.52;;;;;;;;;;5032315;28;20441;-71
2022/07/25 05:44:35;;;;;;;10.35;8.63;;;;;;;;;;5036854;28;20521;-71
2022/07/25 05:47:00;;;;;;;10.13;9.00;;;;;;;;;;5029009;28;20503;-70
2022/07/25 05:49:26;;;;;;;11.70;9.27;;;;;;;;;;5024866;28;20053;-68
2022/07/25 05:51:51;;;;;;;10.57;9.48;;;;;;;;;;5027499;28;20101;-69
2022/07/25 05:54:17;;;;;;;9.30;8.40;;;;;;;;;;5031949;28;20111;-69
2022/07/25 05:56:42;;;;;;;8.57;7.78;;;;;;;;;;5028399;28;20508;-68
2022/07/25 05:59:08;;;;;;;10.93;8.23;;;;;;;;;;5031694;28;20080;-69
2022/07/25 06:01:33;;;;;;;11.13;8.25;;;;;;;;;;5029841;28;20056;-70
2022/07/25 06:03:58;;;;;;;10.63;7.78;;;;;;;;;;5027906;28;20053;-72
2022/07/25 06:06:24;;;;;;;10.02;8.60;;;;;;;;;;5034955;28;20487;-71
2022/07/25 06:08:49;;;;;;;9.32;8.40;;;;;;;;;;5035120;28;20072;-71
2022/07/25 06:11:15;;;;;;;9.70;8.70;;;;;;;;;;5030818;28;20495;-72
2022/07/25 06:13:40;;;;;;;12.35;8.93;;;;;;;;;;5034394;28;20499;-71
2022/07/25 06:16:06;;;;;;;9.80;7.88;;;;;;;;;;5039730;28;20498;-70
2022/07/25 06:18:32;;;;;;;8.82;7.97;;;;;;;;;;5032344;28;20053;-72
2022/07/25 06:20:57;;;;;;;8.30;7.40;;;;;;;;;;5029178;28;20037;-71
2022/07/25 06:23:22;;;;;;;8.73;7.93;;;;;;;;;;5034378;28;20049;-72
2022/07/25 06:25:48;;;;;;;10.95;8.23;;;;;;;;;;5039792;28;20101;-71
2022/07/25 06:28:13;;;;;;;9.23;8.32;;;;;;;;;;5036605;28;20049;-71
2022/07/25 06:30:44;;;;;;;14.75;8.45;;;;;;;;;;5036463;28;20051;-71
2022/07/25 06:33:10;;;;;;;11.15;8.55;;;;;;;;;;5034625;28;20037;-72
2022/07/25 06:35:36;;;;;;;12.15;7.97;;;;;;;;;;5033684;28;20398;-73
2022/07/25 06:38:01;;;;;;;8.98;7.95;;;;;;;;;;5039516;28;20048;-75
2022/07/25 06:40:27;;;;;;;8.93;8.02;;;;;;;;;;5034260;28;20088;-71
2022/07/25 06:42:53;;;;;;;9.10;7.85;;;;;;;;;;5029844;28;20045;-71
2022/07/25 06:45:19;;;;;;;9.18;8.27;;;;;;;;;;5033102;28;20071;-70
2022/07/25 06:47:45;;;;;;;10.80;8.48;;;;;;;;;;5043088;28;20136;-70
2022/07/25 06:50:14;;;;;;;10.80;7.88;;;;;;;;;;5033475;28;20120;-69
2022/07/25 06:52:40;;;;;;;9.32;7.38;;;;;;;;;;5026544;28;20072;-72
2022/07/25 06:55:08;;;;;;;9.43;7.30;;;;;;;;;;5027402;28;20045;-71
2022/07/25 06:57:34;;;;;;;11.43;8.30;;;;;;;;;;5040725;28;20530;-71
2022/07/25 06:59:59;;;;;;;10.48;8.05;;;;;;;;;;5036485;28;20120;-71
2022/07/25 07:02:25;;;;;;;9.75;8.05;;;;;;;;;;5041167;28;20571;-71
2022/07/25 07:04:50;;;;;;;11.65;7.53;;;;;;;;;;5037670;28;20052;-71
2022/07/25 07:07:16;;;;;;;8.80;7.90;;;;;;;;;;5038384;28;20053;-71
2022/07/25 07:09:42;;;;;;;12.82;8.23;;;;;;;;;;5042737;28;20059;-72
2022/07/25 07:12:08;;;;;;;8.65;7.75;;;;;;;;;;5042436;28;20044;-71
2022/07/25 07:14:36;;;;;;;7.70;6.80;;;;;;;;;;5035047;28;20037;-71
2022/07/25 07:17:02;;;;;;;12.15;7.78;;;;;;;;;;5041101;28;20474;-73
2022/07/25 07:19:28;;;;;;;10.68;7.65;;;;;;;;;;5041812;28;20903;-73
2022/07/25 07:21:53;;;;;;;8.32;7.50;;;;;;;;;;5041633;28;20080;-71
2022/07/25 07:24:19;;;;;;;9.32;7.82;;;;;;;;;;5042506;28;20056;-72
2022/07/25 07:26:44;;;;;;;9.75;8.70;;;;;;;;;;5042061;28;20140;-71
2022/07/25 07:29:09;;;;;;;9.30;7.72;;;;;;;;;;5042287;28;20130;-73
2022/07/25 07:31:35;;;;;;;8.07;7.25;;;;;;;;;;5041075;28;20486;-72
2022/07/25 07:34:01;;;;;;;12.05;7.40;;;;;;;;;;5026891;28;20053;-73
2022/07/25 07:36:27;;;;;;;9.68;7.00;;;;;;;;;;5040292;28;20144;-73
2022/07/25 07:38:53;;;;;;;7.95;7.25;;;;;;;;;;5041645;28;20148;-72
2022/07/25 07:41:18;;;;;;;9.60;7.35;;;;;;;;;;5041960;28;20116;-73
2022/07/25 07:43:44;;;;;;;8.38;7.55;;;;;;;;;;5042011;28;20049;-73
2022/07/25 07:46:10;;;;;;;9.80;6.85;;;;;;;;;;5041255;28;20160;-71
2022/07/25 07:48:36;;;;;;;10.02;7.38;;;;;;;;;;5040878;28;20041;-73
2022/07/25 07:51:01;;;;;;;11.10;7.75;;;;;;;;;;5042646;28;20045;-73
2022/07/25 07:56:13;;;;;;;9.02;6.45;;;;;;;;;;5034405;28;20049;-72
2022/07/25 07:58:38;;;;;;;10.77;7.20;;;;;;;;;;5034704;28;20045;-74
2022/07/25 08:01:05;;;;;;;9.35;7.00;;;;;;;;;;5032705;28;20115;-73
2022/07/25 08:03:31;;;;;;;8.52;7.63;;;;;;;;;;5048131;28;20090;-76
2022/07/25 08:05:57;;;;;;;9.93;7.00;;;;;;;;;;5035649;28;20423;-77
2022/07/25 08:08:23;;;;;;;10.30;7.07;;;;;;;;;;5028212;28;20041;-73
2022/07/25 08:10:49;;;;;;;7.88;7.10;;;;;;;;;;5044460;28;20048;-76
2022/07/25 08:13:14;;;;;;;8.55;7.70;;;;;;;;;;5033058;28;20068;-74
2022/07/25 08:15:41;;;;;;;9.00;7.72;;;;;;;;;;5013140;28;20208;-76
2022/07/25 08:18:06;;;;;;;9.55;7.88;;;;;;;;;;5043648;28;20045;-79
2022/07/25 08:20:32;;;;;;;9.85;7.22;;;;;;;;;;5035569;28;20523;-76
2022/07/25 08:22:57;;;;;;;10.23;8.60;;;;;;;;;;5043716;28;20049;-76
2022/07/25 08:25:22;;;;;;;9.20;7.22;;;;;;;;;;5025916;28;20069;-76
2022/07/25 08:27:48;;;;;;;9.10;7.93;;;;;;;;;;5041962;28;20052;-75
2022/07/25 08:30:16;;;;;;;9.02;7.57;;;;;;;;;;5036837;28;20052;-74
2022/07/25 08:32:56;;;;;;;9.05;7.60;;;;;;;;;;5040407;28;20542;-73
2022/07/25 08:35:24;;;;;;;10.95;7.68;;;;;;;;;;5025048;28;20047;-74
2022/07/25 08:37:50;;;;;;;8.35;7.55;;;;;;;;;;5032099;28;20064;-74
2022/07/25 08:40:17;;;;;;;8.75;7.95;;;;;;;;;;5037550;28;20069;-72
2022/07/25 08:42:43;;;;;;;9.30;7.97;;;;;;;;;;5035923;28;20055;-73
2022/07/25 08:45:12;;;;;;;8.18;7.47;;;;;;;;;;5036836;28;21075;-73
2022/07/25 08:47:38;;;;;;;8.45;7.45;;;;;;;;;;5034213;28;20053;-71
2022/07/25 08:50:07;;;;;;;8.63;7.68;;;;;;;;;;5033104;28;20061;-72
2022/07/25 08:52:36;;;;;;;7.88;7.18;;;;;;;;;;5031647;28;20136;-74
2022/07/25 08:55:09;;;;;;;16.90;7.90;;;;;;;;;;5034875;28;20056;-74
2022/07/25 08:57:36;;;;;;;9.77;7.60;;;;;;;;;;5034309;28;20297;-73
2022/07/25 09:00:05;;;;;;;8.10;7.20;;;;;;;;;;5032261;28;20056;-73
2022/07/25 09:02:30;;;;;;;9.35;7.20;;;;;;;;;;5030527;28;20458;-73
2022/07/25 09:04:57;;;;;;;8.75;7.60;;;;;;;;;;5028190;28;20041;-72
2022/07/25 09:07:38;;;;;;;9.68;7.90;;;;;;;;;;5032392;28;20499;-75
2022/07/25 09:10:12;;;;;;;10.18;7.10;;;;;;;;;;5033936;28;20127;-73
2022/07/25 09:12:38;;;;;;;8.35;7.55;;;;;;;;;;5036174;28;20037;-74
2022/07/25 09:15:05;;;;;;;8.75;7.88;;;;;;;;;;5036948;28;20072;-74
2022/07/25 09:17:30;;;;;;;8.85;7.95;;;;;;;;;;5029012;28;20124;-72
2022/07/25 09:19:56;;;;;;;10.32;7.68;;;;;;;;;;5032596;28;20147;-74
2022/07/25 09:22:22;;;;;;;9.18;7.60;;;;;;;;;;5031581;28;20141;-73
2022/07/25 09:24:48;;;;;;;8.05;7.25;;;;;;;;;;5032531;28;20047;-73
2022/07/25 09:27:14;;;;;;;14.18;7.93;;;;;;;;;;5035778;28;20124;-75
2022/07/25 09:29:44;;;;;;;8.23;7.43;;;;;;;;;;5034615;28;20132;-73
2022/07/25 09:32:15;;;;;;;10.52;7.05;;;;;;;;;;5030459;28;20972;-72
2022/07/25 09:34:41;;;;;;;12.77;7.57;;;;;;;;;;5035677;28;20059;-73
2022/07/25 09:37:11;;;;;;;12.07;6.80;;;;;;;;;;5032548;28;20047;-74
2022/07/25 09:39:45;;;;;;;8.07;7.28;;;;;;;;;;5030571;28;20049;-74
2022/07/25 09:42:23;;;;;;;8.75;7.43;;;;;;;;;;5033493;28;20168;-74
2022/07/25 09:44:57;;;;;;;8.40;7.28;;;;;;;;;;5036430;28;20041;-72
2022/07/25 09:47:23;;;;;;;8.45;7.68;;;;;;;;;;5038210;28;20140;-73
2022/07/25 09:49:49;;;;;;;8.48;7.65;;;;;;;;;;5030098;28;20124;-73
2022/07/25 09:52:16;;;;;;;8.48;7.60;;;;;;;;;;5036111;28;20654;-75
2022/07/25 09:54:42;;;;;;;8.02;7.30;;;;;;;;;;5035843;28;20077;-73
2022/07/25 09:57:07;;;;;;;8.38;6.95;;;;;;;;;;5031748;28;20089;-74
2022/07/25 09:59:34;;;;;;;8.10;6.97;;;;;;;;;;5038375;28;20080;-72
2022/07/25 10:02:07;;;;;;;7.97;7.18;;;;;;;;;;5033586;28;20147;-73
2022/07/25 10:04:44;;;;;;;12.52;7.00;;;;;;;;;;5033287;28;20751;-76
2022/07/25 10:07:12;;;;;;;7.10;6.40;;;;;;;;;;5033769;28;20106;-73
2022/07/25 10:09:44;;;;;;;7.32;6.55;;;;;;;;;;5036764;28;20048;-72
2022/07/25 10:12:10;;;;;;;6.68;5.05;;;;;;;;;;5030386;28;20073;-72
2022/07/25 10:14:37;;;;;;;6.38;5.30;;;;;;;;;;5034824;28;20188;-72
2022/07/25 10:17:03;;;;;;;8.93;4.70;;;;;;;;;;5031577;28;20056;-71
2022/07/25 10:19:55;;;;;;;4.82;4.38;;;;;;;;;;5032135;28;20053;-72
2022/07/25 10:22:20;;;;;;;5.22;4.72;;;;;;;;;;5031451;28;20072;-73
2022/07/25 10:24:46;;;;;;;5.80;5.20;;;;;;;;;;5035933;28;20156;-72
2022/07/25 10:27:20;;;;;;;5.15;4.72;;;;;;;;;;5036302;28;20072;-73
2022/07/25 10:29:51;;;;;;;12.15;5.10;;;;;;;;;;5030239;28;20107;-73
2022/07/25 10:32:17;;;;;;;6.28;4.95;;;;;;;;;;5031504;28;20053;-73
2022/07/25 10:34:51;;;;;;;5.25;4.75;;;;;;;;;;5033815;28;20103;-75
2022/07/25 10:37:19;;;;;;;8.32;4.88;;;;;;;;;;5026873;28;20380;-73
2022/07/25 10:39:47;;;;;;;5.85;5.25;;;;;;;;;;5039915;28;20044;-72
2022/07/25 10:42:15;;;;;;;7.45;5.47;;;;;;;;;;5033365;28;20069;-73
2022/07/25 10:44:42;;;;;;;6.40;4.70;;;;;;;;;;5028407;28;20098;-73
2022/07/25 10:47:10;;;;;;;8.43;4.55;;;;;;;;;;5031864;28;20053;-72
2022/07/25 10:49:39;;;;;;;6.50;4.10;;;;;;;;;;5030923;28;20531;-73
2022/07/25 10:52:05;;;;;;;5.68;4.60;;;;;;;;;;5028764;28;20107;-74
2022/07/25 10:54:36;;;;;;;16.95;4.55;;;;;;;;;;5035229;28;20037;-73
2022/07/25 10:57:03;;;;;;;4.78;4.32;;;;;;;;;;5033226;28;20697;-73
2022/07/25 10:59:37;;;;;;;4.80;4.40;;;;;;;;;;5033237;28;20046;-74
2022/07/25 11:02:14;;;;;;;7.20;4.43;;;;;;;;;;5032498;28;20053;-73
2022/07/25 11:04:41;;;;;;;5.22;4.50;;;;;;;;;;5031822;28;20052;-74
2022/07/25 11:07:11;;;;;;;9.07;4.70;;;;;;;;;;5034360;28;20037;-75
2022/07/25 11:09:37;;;;;;;6.85;4.63;;;;;;;;;;5032364;28;20065;-76
2022/07/25 11:12:03;;;;;;;4.90;4.43;;;;;;;;;;5027397;28;20054;-76
2022/07/25 11:14:32;;;;;;;5.93;4.22;;;;;;;;;;5037101;28;20067;-74
2022/07/25 11:17:08;;;;;;;5.13;4.55;;;;;;;;;;5026548;28;20140;-74
2022/07/25 11:19:33;;;;;;;5.28;4.78;;;;;;;;;;5027041;28;20106;-73
2022/07/25 11:22:00;;;;;;;5.63;4.50;;;;;;;;;;5025272;28;20049;-72
2022/07/25 11:24:42;;;;;;;6.05;4.97;;;;;;;;;;5036522;28;20075;-75
2022/07/25 11:27:09;;;;;;;8.32;4.70;;;;;;;;;;5035448;28;20052;-72
2022/07/25 11:29:37;;;;;;;4.63;4.18;;;;;;;;;;5035164;28;20507;-73
2022/07/25 11:32:06;;;;;;;7.07;4.88;;;;;;;;;;5032660;28;20052;-72
2022/07/25 11:34:34;;;;;;;5.40;4.75;;;;;;;;;;5033312;28;20052;-72
2022/07/25 11:37:02;;;;;;;6.45;4.38;;;;;;;;;;5038118;28;20056;-72
2022/07/25 11:39:31;;;;;;;5.10;4.65;;;;;;;;;;5036328;28;20503;-72
2022/07/25 11:42:06;;;;;;;6.85;4.80;;;;;;;;;;5034006;28;20040;-72
2022/07/25 11:44:34;;;;;;;7.20;4.78;;;;;;;;;;5034009;28;20084;-74
2022/07/25 11:47:00;;;;;;;5.53;5.03;;;;;;;;;;5035530;28;20052;-72
2022/07/25 11:49:26;;;;;;;5.65;5.05;;;;;;;;;;5036532;28;20045;-73
2022/07/25 11:51:52;;;;;;;7.80;4.57;;;;;;;;;;5032403;28;20430;-75
2022/07/25 11:54:18;;;;;;;6.25;4.30;;;;;;;;;;5034148;28;20566;-73
2022/07/25 11:56:45;;;;;;;4.65;4.25;;;;;;;;;;5033006;28;20044;-71
2022/07/25 11:59:11;;;;;;;4.32;3.83;;;;;;;;;;5035441;28;20044;-72
2022/07/25 12:01:43;;;;;;;4.28;3.78;;;;;;;;;;5038738;28;20064;-73
2022/07/25 12:04:11;;;;;;;6.65;3.58;;;;;;;;;;5035839;28;20466;-72
2022/07/25 12:06:36;;;;;;;6.93;3.40;;;;;;;;;;5027324;28;21598;-72
2022/07/25 12:09:13;;;;;;;4.03;3.30;;;;;;;;;;5023726;28;20052;-71
2022/07/25 12:11:38;;;;;;;4.10;3.78;;;;;;;;;;5031605;28;20411;-73
2022/07/25 12:14:05;;;;;;;7.10;3.53;;;;;;;;;;5030255;28;20523;-72
2022/07/25 12:16:31;;;;;;;3.92;3.42;;;;;;;;;;5027048;28;20060;-72
2022/07/25 12:18:56;;;;;;;5.28;3.40;;;;;;;;;;5026736;28;20553;-72
2022/07/25 12:21:22;;;;;;;3.78;3.47;;;;;;;;;;5028085;28;20049;-72
2022/07/25 12:23:47;;;;;;;6.45;3.20;;;;;;;;;;5024224;28;20060;-74
2022/07/25 12:26:13;;;;;;;3.50;3.20;;;;;;;;;;5025224;28;20071;-71
2022/07/25 12:28:39;;;;;;;3.83;3.03;;;;;;;;;;5028880;28;20044;-72
2022/07/25 12:31:05;;;;;;;4.50;3.55;;;;;;;;;;5032997;28;20049;-72
2022/07/25 12:33:31;;;;;;;4.05;3.05;;;;;;;;;;5024773;28;20046;-73
2022/07/25 12:35:58;;;;;;;4.57;3.03;;;;;;;;;;5033745;28;20094;-73
2022/07/25 12:38:23;;;;;;;3.55;3.05;;;;;;;;;;5034345;28;20068;-72
2022/07/25 12:40:49;;;;;;;3.63;3.08;;;;;;;;;;5040884;28;20045;-71
2022/07/25 12:43:14;;;;;;;6.05;3.17;;;;;;;;;;5036316;28;20049;-72
2022/07/25 12:45:41;;;;;;;8.63;3.33;;;;;;;;;;5032299;28;20052;-71
2022/07/25 12:48:07;;;;;;;4.10;3.30;;;;;;;;;;5034495;28;20088;-71
2022/07/25 12:50:33;;;;;;;3.22;3.03;;;;;;;;;;5038490;28;20053;-69
2022/07/25 12:52:59;;;;;;;5.38;3.40;;;;;;;;;;5040622;28;20121;-70
2022/07/25 12:55:25;;;;;;;3.78;3.00;;;;;;;;;;5035707;28;20041;-71
2022/07/25 12:57:50;;;;;;;4.35;3.25;;;;;;;;;;5033399;28;20245;-72
2022/07/25 13:00:18;;;;;;;3.78;3.33;;;;;;;;;;5038114;28;20041;-74
2022/07/25 13:02:43;;;;;;;4.90;3.58;;;;;;;;;;5038252;28;20098;-73
2022/07/25 13:05:09;;;;;;;7.03;3.47;;;;;;;;;;5036309;28;20053;-72
2022/07/25 13:07:35;;;;;;;4.25;3.40;;;;;;;;;;5036553;28;20059;-73
2022/07/25 13:10:02;;;;;;;3.20;3.00;;;;;;;;;;5036545;28;20051;-70
2022/07/25 13:12:28;;;;;;;12.75;3.50;;;;;;;;;;5038627;28;20049;-73
2022/07/25 13:14:53;;;;;;;6.38;3.30;;;;;;;;;;5038671;28;20107;-73
2022/07/25 13:17:19;;;;;;;4.55;3.25;;;;;;;;;;5036048;28;20152;-73
2022/07/25 13:19:44;;;;;;;3.40;3.10;;;;;;;;;;5036754;28;20045;-76
2022/07/25 13:22:10;;;;;;;3.95;3.55;;;;;;;;;;5031476;28;20423;-73
2022/07/25 13:24:35;;;;;;;4.65;3.30;;;;;;;;;;5034295;28;20056;-71
2022/07/25 13:27:04;;;;;;;3.95;3.50;;;;;;;;;;5023069;28;20512;-73
2022/07/25 13:29:30;;;;;;;5.05;3.10;;;;;;;;;;5036042;28;20536;-71
2022/07/25 13:31:56;;;;;;;5.00;3.15;;;;;;;;;;5022526;28;20056;-72
2022/07/25 13:34:21;;;;;;;8.13;3.22;;;;;;;;;;5028545;28;20049;-72
2022/07/25 13:36:46;;;;;;;9.75;3.45;;;;;;;;;;5032235;28;20795;-72
2022/07/25 13:39:12;;;;;;;5.63;3.60;;;;;;;;;;5022055;28;20049;-72
2022/07/25 13:41:37;;;;;;;6.78;3.30;;;;;;;;;;5018697;28;20061;-75
2022/07/25 13:44:03;;;;;;;7.10;3.30;;;;;;;;;;5020865;28;20780;-74
2022/07/25 13:46:30;;;;;;;4.80;3.10;;;;;;;;;;5019649;28;20156;-74
2022/07/25 13:48:56;;;;;;;4.85;3.13;;;;;;;;;;5024065;28;20041;-72
2022/07/25 13:51:21;;;;;;;4.65;3.03;;;;;;;;;;5022147;28;20411;-71
2022/07/25 13:53:46;;;;;;;9.85;3.63;;;;;;;;;;5020890;28;20234;-74
2022/07/25 13:56:12;;;;;;;5.55;3.38;;;;;;;;;;5031066;28;20073;-74
2022/07/25 13:58:38;;;;;;;3.05;2.85;;;;;;;;;;5028151;28;20414;-71
2022/07/25 14:01:04;;;;;;;4.88;3.30;;;;;;;;;;5033878;28;20048;-71
2022/07/25 14:03:29;;;;;;;4.97;3.38;;;;;;;;;;5032134;28;20629;-72
2022/07/25 14:05:56;;;;;;;6.75;3.33;;;;;;;;;;5034299;28;20163;-73
2022/07/25 14:08:21;;;;;;;6.57;3.30;;;;;;;;;;5035528;28;20558;-72
2022/07/25 14:10:47;;;;;;;5.60;3.17;;;;;;;;;;5030571;28;20051;-72
2022/07/25 14:13:12;;;;;;;5.38;3.65;;;;;;;;;;5037908;28;20060;-72
2022/07/25 14:15:38;;;;;;;8.23;3.60;;;;;;;;;;5016381;28;21758;-72
2022/07/25 14:18:03;;;;;;;4.82;3.70;;;;;;;;;;5027500;28;20056;-72
2022/07/25 14:20:31;;;;;;;3.92;3.63;;;;;;;;;;5037075;28;20049;-71
2022/07/25 14:22:57;;;;;;;6.35;4.10;;;;;;;;;;5031737;28;21014;-72
2022/07/25 14:25:22;;;;;;;3.75;3.40;;;;;;;;;;5037837;28;20056;-72
2022/07/25 14:27:48;;;;;;;4.20;3.30;;;;;;;;;;5026674;28;20037;-72
2022/07/25 14:30:13;;;;;;;3.50;3.00;;;;;;;;;;5031360;28;20053;-74
2022/07/25 14:32:39;;;;;;;3.78;3.03;;;;;;;;;;5028211;28;20048;-72
2022/07/25 14:35:05;;;;;;;2.80;2.60;;;;;;;;;;5030561;28;20059;-72